sensor_id;sensor_type;location;lat;lon;timestamp;pressure;altitude;pressure_sealevel;temperature;humidity
62833;BME280;48891;49.220;6.920;2023-07-31T00:02:06;98984.81;;;22.51;52.82
62833;BME280;48891;49.220;6.920;2023-07-31T00:04:31;98994.53;;;22.52;53.11
62833;BME280;48891;49.220;6.920;2023-07-31T00:06:56;98974.06;;;22.51;53.01
62833;BME280;48891;49.220;6.920;2023-07-31T00:09:21;98974.06;;;22.51;53.18
62833;BME280;48891;49.220;6.920;2023-07-31T00:11:47;98962.66;;;22.49;52.92
62833;BME280;48891;49.220;6.920;2023-07-31T00:14:12;98960.78;;;22.49;52.92
62833;BME280;48891;49.220;6.920;2023-07-31T00:16:37;98965.84;;;22.52;52.91
62833;BME280;48891;49.220;6.920;2023-07-31T00:19:02;98964.47;;;22.48;52.79
62833;BME280;48891;49.220;6.920;2023-07-31T00:21:28;98960.63;;;22.51;53.00
62833;BME280;48891;49.220;6.920;2023-07-31T00:23:53;98960.63;;;22.51;53.01
62833;BME280;48891;49.220;6.920;2023-07-31T00:26:18;98966.00;;;22.51;52.94
62833;BME280;48891;49.220;6.920;2023-07-31T00:28:43;98967.81;;;22.50;52.85
62833;BME280;48891;49.220;6.920;2023-07-31T00:31:09;98961.63;;;22.50;52.69
62833;BME280;48891;49.220;6.920;2023-07-31T00:33:34;98949.38;;;22.47;52.87
62833;BME280;48891;49.220;6.920;2023-07-31T00:36:00;98955.41;;;22.49;52.88
62833;BME280;48891;49.220;6.920;2023-07-31T00:38:25;98960.94;;;22.48;52.82
62833;BME280;48891;49.220;6.920;2023-07-31T00:40:50;98962.66;;;22.49;52.64
62833;BME280;48891;49.220;6.920;2023-07-31T00:43:16;98966.84;;;22.51;52.95
62833;BME280;48891;49.220;6.920;2023-07-31T00:45:41;98968.84;;;22.49;52.91
62833;BME280;48891;49.220;6.920;2023-07-31T00:48:07;98932.59;;;22.27;52.67
62833;BME280;48891;49.220;6.920;2023-07-31T00:50:33;98945.78;;;22.39;53.02
62833;BME280;48891;49.220;6.920;2023-07-31T00:52:58;98967.16;;;22.48;52.91
62833;BME280;48891;49.220;6.920;2023-07-31T00:55:23;98964.31;;;22.50;52.63
62833;BME280;48891;49.220;6.920;2023-07-31T00:57:49;98962.78;;;22.47;52.67
62833;BME280;48891;49.220;6.920;2023-07-31T01:00:15;98953.56;;;22.50;52.58
62833;BME280;48891;49.220;6.920;2023-07-31T01:02:41;98947.50;;;22.48;52.60
62833;BME280;48891;49.220;6.920;2023-07-31T01:05:06;98954.59;;;22.49;52.80
62833;BME280;48891;49.220;6.920;2023-07-31T01:07:56;98943.31;;;22.45;52.68
62833;BME280;48891;49.220;6.920;2023-07-31T01:10:32;98918.19;;;22.28;52.71
62833;BME280;48891;49.220;6.920;2023-07-31T01:12:58;98939.44;;;22.48;52.63
62833;BME280;48891;49.220;6.920;2023-07-31T01:15:23;98939.44;;;22.48;52.92
62833;BME280;48891;49.220;6.920;2023-07-31T01:17:49;98932.38;;;22.47;52.74
62833;BME280;48891;49.220;6.920;2023-07-31T01:20:21;98939.28;;;22.49;52.57
62833;BME280;48891;49.220;6.920;2023-07-31T01:28:14;98927.00;;;22.47;52.73
62833;BME280;48891;49.220;6.920;2023-07-31T01:30:43;98924.31;;;22.47;53.01
62833;BME280;48891;49.220;6.920;2023-07-31T01:33:10;98918.94;;;22.47;52.79
62833;BME280;48891;49.220;6.920;2023-07-31T01:35:36;98917.13;;;22.47;52.80
62833;BME280;48891;49.220;6.920;2023-07-31T01:38:02;98910.22;;;22.45;52.94
62833;BME280;48891;49.220;6.920;2023-07-31T01:40:27;98879.59;;;22.29;52.51
62833;BME280;48891;49.220;6.920;2023-07-31T01:42:52;98904.84;;;22.45;52.53
62833;BME280;48891;49.220;6.920;2023-07-31T01:45:18;98905.72;;;22.45;52.95
62833;BME280;48891;49.220;6.920;2023-07-31T01:47:43;98911.91;;;22.46;52.82
62833;BME280;48891;49.220;6.920;2023-07-31T01:50:09;98882.31;;;22.37;52.79
62833;BME280;48891;49.220;6.920;2023-07-31T01:52:34;98889.06;;;22.42;52.80
62833;BME280;48891;49.220;6.920;2023-07-31T01:54:59;98899.31;;;22.46;52.80
62833;BME280;48891;49.220;6.920;2023-07-31T01:57:24;98907.38;;;22.46;52.53
62833;BME280;48891;49.220;6.920;2023-07-31T01:59:50;98894.75;;;22.39;53.09
62833;BME280;48891;49.220;6.920;2023-07-31T02:02:16;98876.94;;;22.29;52.79
62833;BME280;48891;49.220;6.920;2023-07-31T02:04:41;98897.81;;;22.44;52.77
62833;BME280;48891;49.220;6.920;2023-07-31T02:07:06;98903.84;;;22.46;52.88
62833;BME280;48891;49.220;6.920;2023-07-31T02:09:31;98895.78;;;22.46;52.89
62833;BME280;48891;49.220;6.920;2023-07-31T02:11:57;98892.44;;;22.44;52.63
62833;BME280;48891;49.220;6.920;2023-07-31T02:14:22;98895.13;;;22.44;52.95
62833;BME280;48891;49.220;6.920;2023-07-31T02:16:47;98880.81;;;22.35;52.73
62833;BME280;48891;49.220;6.920;2023-07-31T02:19:13;98899.47;;;22.45;52.76
62833;BME280;48891;49.220;6.920;2023-07-31T02:21:38;98889.06;;;22.42;52.97
62833;BME280;48891;49.220;6.920;2023-07-31T02:24:03;98899.47;;;22.45;52.70
62833;BME280;48891;49.220;6.920;2023-07-31T02:26:29;98895.94;;;22.44;52.70
62833;BME280;48891;49.220;6.920;2023-07-31T02:28:54;98885.38;;;22.43;52.85
62833;BME280;48891;49.220;6.920;2023-07-31T02:31:19;98886.19;;;22.43;52.89
62833;BME280;48891;49.220;6.920;2023-07-31T02:33:44;98872.09;;;22.41;52.57
62833;BME280;48891;49.220;6.920;2023-07-31T02:36:10;98874.47;;;22.44;52.87
62833;BME280;48891;49.220;6.920;2023-07-31T02:38:35;98871.09;;;22.42;52.77
62833;BME280;48891;49.220;6.920;2023-07-31T02:41:00;98884.38;;;22.44;52.80
62833;BME280;48891;49.220;6.920;2023-07-31T02:43:25;98887.06;;;22.44;52.74
62833;BME280;48891;49.220;6.920;2023-07-31T02:45:52;98885.38;;;22.43;53.03
62833;BME280;48891;49.220;6.920;2023-07-31T02:48:17;98884.53;;;22.42;52.93
62833;BME280;48891;49.220;6.920;2023-07-31T02:50:42;98886.19;;;22.43;52.79
62833;BME280;48891;49.220;6.920;2023-07-31T02:53:07;98888.06;;;22.43;52.72
62833;BME280;48891;49.220;6.920;2023-07-31T02:55:33;98874.94;;;22.40;52.62
62833;BME280;48891;49.220;6.920;2023-07-31T02:57:58;98878.31;;;22.42;52.47
62833;BME280;48891;49.220;6.920;2023-07-31T03:00:23;98879.31;;;22.41;52.84
62833;BME280;48891;49.220;6.920;2023-07-31T03:02:48;98887.38;;;22.41;52.99
62833;BME280;48891;49.220;6.920;2023-07-31T03:05:13;98880.16;;;22.41;52.46
62833;BME280;48891;49.220;6.920;2023-07-31T03:07:39;98882.00;;;22.41;52.59
62833;BME280;48891;49.220;6.920;2023-07-31T03:10:04;98880.16;;;22.41;52.79
62833;BME280;48891;49.220;6.920;2023-07-31T03:12:30;98881.84;;;22.42;52.86
62833;BME280;48891;49.220;6.920;2023-07-31T03:14:55;98882.00;;;22.41;52.56
62833;BME280;48891;49.220;6.920;2023-07-31T03:17:20;98880.31;;;22.40;52.73
62833;BME280;48891;49.220;6.920;2023-07-31T03:19:45;98886.53;;;22.40;52.93
62833;BME280;48891;49.220;6.920;2023-07-31T03:22:11;98881.16;;;22.40;52.51
62833;BME280;48891;49.220;6.920;2023-07-31T03:24:36;98889.06;;;22.42;52.90
62833;BME280;48891;49.220;6.920;2023-07-31T03:27:01;98884.00;;;22.39;52.70
62833;BME280;48891;49.220;6.920;2023-07-31T03:29:26;98885.69;;;22.40;52.78
62833;BME280;48891;49.220;6.920;2023-07-31T03:31:52;98884.69;;;22.41;52.66
62833;BME280;48891;49.220;6.920;2023-07-31T03:34:17;98880.31;;;22.40;52.80
62833;BME280;48891;49.220;6.920;2023-07-31T03:36:42;98887.38;;;22.41;52.67
62833;BME280;48891;49.220;6.920;2023-07-31T03:39:08;98880.31;;;22.40;52.73
62833;BME280;48891;49.220;6.920;2023-07-31T03:41:33;98873.44;;;22.37;52.73
62833;BME280;48891;49.220;6.920;2023-07-31T03:43:58;98879.31;;;22.41;52.71
62833;BME280;48891;49.220;6.920;2023-07-31T03:46:24;98874.94;;;22.40;52.51
62833;BME280;48891;49.220;6.920;2023-07-31T03:48:49;98872.41;;;22.38;52.95
62833;BME280;48891;49.220;6.920;2023-07-31T03:51:15;98873.28;;;22.39;52.84
62833;BME280;48891;49.220;6.920;2023-07-31T03:53:40;98868.88;;;22.37;52.70
62833;BME280;48891;49.220;6.920;2023-07-31T03:56:05;98864.53;;;22.36;52.50
62833;BME280;48891;49.220;6.920;2023-07-31T03:58:30;98867.91;;;22.39;52.77
62833;BME280;48891;49.220;6.920;2023-07-31T04:00:56;98871.72;;;22.36;52.62
62833;BME280;48891;49.220;6.920;2023-07-31T04:03:21;98871.88;;;22.34;52.69
62833;BME280;48891;49.220;6.920;2023-07-31T04:05:46;98873.59;;;22.35;52.94
62833;BME280;48891;49.220;6.920;2023-07-31T04:08:11;98872.59;;;22.36;52.89
62833;BME280;48891;49.220;6.920;2023-07-31T04:10:37;98866.34;;;22.36;52.61
62833;BME280;48891;49.220;6.920;2023-07-31T04:13:02;98860.00;;;22.37;52.83
62833;BME280;48891;49.220;6.920;2023-07-31T04:15:27;98861.66;;;22.38;52.75
62833;BME280;48891;49.220;6.920;2023-07-31T04:17:52;98869.19;;;22.34;52.77
62833;BME280;48891;49.220;6.920;2023-07-31T04:20:18;98870.91;;;22.35;52.84
62833;BME280;48891;49.220;6.920;2023-07-31T04:22:43;98868.53;;;22.32;52.76
62833;BME280;48891;49.220;6.920;2023-07-31T04:25:08;98867.53;;;22.33;52.85
62833;BME280;48891;49.220;6.920;2023-07-31T04:27:34;98871.72;;;22.36;52.51
62833;BME280;48891;49.220;6.920;2023-07-31T04:29:59;98859.94;;;22.29;52.92
62833;BME280;48891;49.220;6.920;2023-07-31T04:32:24;98863.00;;;22.34;52.78
62833;BME280;48891;49.220;6.920;2023-07-31T04:34:49;98866.19;;;22.37;52.85
62833;BME280;48891;49.220;6.920;2023-07-31T04:37:15;98847.81;;;22.25;52.52
62833;BME280;48891;49.220;6.920;2023-07-31T04:39:40;98862.16;;;22.33;52.76
62833;BME280;48891;49.220;6.920;2023-07-31T04:42:05;98856.78;;;22.33;52.45
62833;BME280;48891;49.220;6.920;2023-07-31T04:44:30;98855.44;;;22.29;52.50
62833;BME280;48891;49.220;6.920;2023-07-31T04:46:56;98855.09;;;22.32;52.51
62833;BME280;48891;49.220;6.920;2023-07-31T04:49:21;98852.75;;;22.29;52.73
62833;BME280;48891;49.220;6.920;2023-07-31T04:51:46;98856.78;;;22.33;52.89
62833;BME280;48891;49.220;6.920;2023-07-31T04:54:11;98850.34;;;22.26;52.62
62833;BME280;48891;49.220;6.920;2023-07-31T04:56:36;98842.16;;;22.28;52.82
62833;BME280;48891;49.220;6.920;2023-07-31T04:59:02;98847.38;;;22.29;52.93
62833;BME280;48891;49.220;6.920;2023-07-31T05:03:52;98836.66;;;22.29;52.66
62833;BME280;48891;49.220;6.920;2023-07-31T05:06:17;98833.25;;;22.27;53.03
62833;BME280;48891;49.220;6.920;2023-07-31T05:08:42;98832.78;;;22.32;52.44
62833;BME280;48891;49.220;6.920;2023-07-31T05:11:08;98826.72;;;22.30;52.56
62833;BME280;48891;49.220;6.920;2023-07-31T05:15:58;98817.28;;;22.26;52.89
62833;BME280;48891;49.220;6.920;2023-07-31T05:18:23;98824.22;;;22.28;52.52
62833;BME280;48891;49.220;6.920;2023-07-31T05:20:49;98821.53;;;22.28;52.60
62833;BME280;48891;49.220;6.920;2023-07-31T05:23:14;98825.03;;;22.29;52.95
62833;BME280;48891;49.220;6.920;2023-07-31T05:25:39;98814.78;;;22.24;52.82
62833;BME280;48891;49.220;6.920;2023-07-31T05:28:04;98833.25;;;22.27;52.85
62833;BME280;48891;49.220;6.920;2023-07-31T05:30:30;98823.22;;;22.29;52.84
62833;BME280;48891;49.220;6.920;2023-07-31T05:32:55;98821.53;;;22.28;52.91
62833;BME280;48891;49.220;6.920;2023-07-31T05:35:20;98825.91;;;22.29;52.60
62833;BME280;48891;49.220;6.920;2023-07-31T05:37:46;98828.59;;;22.29;52.63
62833;BME280;48891;49.220;6.920;2023-07-31T05:40:11;98824.22;;;22.28;52.59
62833;BME280;48891;49.220;6.920;2023-07-31T05:42:36;98825.91;;;22.29;52.65
62833;BME280;48891;49.220;6.920;2023-07-31T05:45:01;98826.06;;;22.28;52.85
62833;BME280;48891;49.220;6.920;2023-07-31T05:47:27;98833.97;;;22.29;52.51
62833;BME280;48891;49.220;6.920;2023-07-31T05:49:52;98827.72;;;22.29;52.65
62833;BME280;48891;49.220;6.920;2023-07-31T05:52:17;98819.81;;;22.27;52.74
62833;BME280;48891;49.220;6.920;2023-07-31T05:54:43;98820.69;;;22.28;52.64
62833;BME280;48891;49.220;6.920;2023-07-31T05:57:08;98812.63;;;22.28;52.82
62833;BME280;48891;49.220;6.920;2023-07-31T05:59:33;98820.53;;;22.29;52.94
62833;BME280;48891;49.220;6.920;2023-07-31T06:01:59;98815.16;;;22.29;52.67
62833;BME280;48891;49.220;6.920;2023-07-31T06:04:24;98808.94;;;22.29;52.78
62833;BME280;48891;49.220;6.920;2023-07-31T06:06:49;98809.78;;;22.29;52.95
62833;BME280;48891;49.220;6.920;2023-07-31T06:09:15;98811.44;;;22.30;52.73
62833;BME280;48891;49.220;6.920;2023-07-31T06:11:40;98816.81;;;22.30;52.67
62833;BME280;48891;49.220;6.920;2023-07-31T06:14:05;98818.84;;;22.28;52.78
62833;BME280;48891;49.220;6.920;2023-07-31T06:16:30;98808.09;;;22.28;52.75
62833;BME280;48891;49.220;6.920;2023-07-31T06:18:56;98808.75;;;22.30;52.93
62833;BME280;48891;49.220;6.920;2023-07-31T06:21:21;98819.50;;;22.30;52.77
62833;BME280;48891;49.220;6.920;2023-07-31T06:23:46;98819.50;;;22.30;52.92
62833;BME280;48891;49.220;6.920;2023-07-31T06:28:37;98817.50;;;22.32;52.50
62833;BME280;48891;49.220;6.920;2023-07-31T06:31:02;98805.25;;;22.30;52.78
62833;BME280;48891;49.220;6.920;2023-07-31T06:33:27;98822.03;;;22.32;52.48
62833;BME280;48891;49.220;6.920;2023-07-31T06:35:53;98827.25;;;22.33;52.75
62833;BME280;48891;49.220;6.920;2023-07-31T06:38:26;98827.09;;;22.35;52.45
62833;BME280;48891;49.220;6.920;2023-07-31T06:40:51;98795.63;;;22.19;52.45
62833;BME280;48891;49.220;6.920;2023-07-31T06:43:17;98815.50;;;22.34;52.89
62833;BME280;48891;49.220;6.920;2023-07-31T06:45:42;98814.50;;;22.35;52.84
62833;BME280;48891;49.220;6.920;2023-07-31T06:48:07;98814.34;;;22.37;52.59
62833;BME280;48891;49.220;6.920;2023-07-31T06:50:33;98807.13;;;22.37;52.74
62833;BME280;48891;49.220;6.920;2023-07-31T06:52:58;98809.81;;;22.37;52.54
62833;BME280;48891;49.220;6.920;2023-07-31T06:55:24;98801.59;;;22.39;52.62
62833;BME280;48891;49.220;6.920;2023-07-31T06:57:50;98798.91;;;22.39;52.69
62833;BME280;48891;49.220;6.920;2023-07-31T07:00:17;98790.28;;;22.27;52.37
62833;BME280;48891;49.220;6.920;2023-07-31T07:02:43;98810.31;;;22.41;52.54
62833;BME280;48891;49.220;6.920;2023-07-31T07:05:08;98807.78;;;22.40;52.50
62833;BME280;48891;49.220;6.920;2023-07-31T07:07:34;98796.00;;;22.32;52.46
62833;BME280;48891;49.220;6.920;2023-07-31T07:09:59;98809.47;;;22.41;52.33
62833;BME280;48891;49.220;6.920;2023-07-31T07:12:25;98804.28;;;22.39;52.59
62833;BME280;48891;49.220;6.920;2023-07-31T07:14:51;98781.53;;;22.25;52.35
62833;BME280;48891;49.220;6.920;2023-07-31T07:17:16;98808.50;;;22.42;52.35
62833;BME280;48891;49.220;6.920;2023-07-31T07:19:41;98798.91;;;22.39;52.74
62833;BME280;48891;49.220;6.920;2023-07-31T07:22:07;98807.78;;;22.40;52.65
62833;BME280;48891;49.220;6.920;2023-07-31T07:24:32;98794.72;;;22.36;52.52
62833;BME280;48891;49.220;6.920;2023-07-31T07:26:57;98793.22;;;22.42;52.20
62833;BME280;48891;49.220;6.920;2023-07-31T07:29:22;98795.22;;;22.40;52.24
62833;BME280;48891;49.220;6.920;2023-07-31T07:31:48;98787.00;;;22.42;52.59
62833;BME280;48891;49.220;6.920;2023-07-31T07:34:13;98776.41;;;22.40;52.29
62833;BME280;48891;49.220;6.920;2023-07-31T07:36:38;98785.00;;;22.44;52.57
62833;BME280;48891;49.220;6.920;2023-07-31T07:39:03;98770.34;;;22.38;52.43
62833;BME280;48891;49.220;6.920;2023-07-31T07:41:29;98775.25;;;22.43;52.27
62833;BME280;48891;49.220;6.920;2023-07-31T07:43:54;98770.69;;;22.43;52.27
62833;BME280;48891;49.220;6.920;2023-07-31T07:46:19;98768.88;;;22.44;52.32
62833;BME280;48891;49.220;6.920;2023-07-31T07:48:44;98772.56;;;22.43;52.29
62833;BME280;48891;49.220;6.920;2023-07-31T07:51:09;98771.06;;;22.40;52.51
62833;BME280;48891;49.220;6.920;2023-07-31T07:53:35;98750.34;;;22.32;52.40
62833;BME280;48891;49.220;6.920;2023-07-31T07:56:00;98777.44;;;22.47;52.41
62833;BME280;48891;49.220;6.920;2023-07-31T07:58:25;98765.16;;;22.45;52.24
62833;BME280;48891;49.220;6.920;2023-07-31T08:00:51;98759.78;;;22.45;52.47
62833;BME280;48891;49.220;6.920;2023-07-31T08:03:16;98767.03;;;22.44;52.62
62833;BME280;48891;49.220;6.920;2023-07-31T08:05:41;98764.34;;;22.44;52.38
62833;BME280;48891;49.220;6.920;2023-07-31T08:08:07;98751.75;;;22.45;52.34
62833;BME280;48891;49.220;6.920;2023-07-31T08:10:32;98760.66;;;22.45;52.32
62833;BME280;48891;49.220;6.920;2023-07-31T08:12:57;98759.78;;;22.45;52.44
62833;BME280;48891;49.220;6.920;2023-07-31T08:15:22;98754.78;;;22.42;52.73
62833;BME280;48891;49.220;6.920;2023-07-31T08:17:47;98757.97;;;22.45;52.32
62833;BME280;48891;49.220;6.920;2023-07-31T08:20:13;98744.19;;;22.40;52.28
62833;BME280;48891;49.220;6.920;2023-07-31T08:22:38;98765.16;;;22.45;52.52
62833;BME280;48891;49.220;6.920;2023-07-31T08:25:04;98760.81;;;22.44;52.62
62833;BME280;48891;49.220;6.920;2023-07-31T08:27:29;98754.44;;;22.45;52.26
62833;BME280;48891;49.220;6.920;2023-07-31T08:29:54;98749.91;;;22.45;52.48
62833;BME280;48891;49.220;6.920;2023-07-31T08:32:19;98756.28;;;22.44;52.34
62833;BME280;48891;49.220;6.920;2023-07-31T08:34:45;98739.16;;;22.45;52.38
62833;BME280;48891;49.220;6.920;2023-07-31T08:37:10;98736.28;;;22.47;52.55
62833;BME280;48891;49.220;6.920;2023-07-31T08:39:35;98735.47;;;22.46;52.44
62833;BME280;48891;49.220;6.920;2023-07-31T08:42:00;98710.47;;;22.46;53.02
62833;BME280;48891;49.220;6.920;2023-07-31T08:44:25;98711.28;;;22.46;52.47
62833;BME280;48891;49.220;6.920;2023-07-31T08:46:51;98705.75;;;22.48;52.44
62833;BME280;48891;49.220;6.920;2023-07-31T08:49:17;98711.13;;;22.48;52.56
62833;BME280;48891;49.220;6.920;2023-07-31T08:51:46;98708.59;;;22.46;52.41
62833;BME280;48891;49.220;6.920;2023-07-31T08:54:12;98705.75;;;22.48;52.57
62833;BME280;48891;49.220;6.920;2023-07-31T08:56:39;98686.25;;;22.37;52.67
62833;BME280;48891;49.220;6.920;2023-07-31T08:59:05;98691.50;;;22.47;52.65
62833;BME280;48891;49.220;6.920;2023-07-31T09:01:34;98663.28;;;22.35;52.54
62833;BME280;48891;49.220;6.920;2023-07-31T09:04:01;98686.59;;;22.43;52.54
62833;BME280;48891;49.220;6.920;2023-07-31T09:06:28;98695.50;;;22.43;52.69
62833;BME280;48891;49.220;6.920;2023-07-31T09:08:53;98703.38;;;22.45;52.95
62833;BME280;48891;49.220;6.920;2023-07-31T09:11:20;98700.69;;;22.45;52.82
62833;BME280;48891;49.220;6.920;2023-07-31T09:13:46;98706.25;;;22.43;52.60
62833;BME280;48891;49.220;6.920;2023-07-31T09:16:11;98715.84;;;22.46;52.81
62833;BME280;48891;49.220;6.920;2023-07-31T09:18:53;98715.84;;;22.46;52.75
62833;BME280;48891;49.220;6.920;2023-07-31T09:21:19;98720.38;;;22.45;52.67
62833;BME280;48891;49.220;6.920;2023-07-31T09:23:46;98725.91;;;22.44;52.81
62833;BME280;48891;49.220;6.920;2023-07-31T09:26:18;98722.19;;;22.45;52.86
62833;BME280;48891;49.220;6.920;2023-07-31T09:28:53;98732.25;;;22.43;52.54
62833;BME280;48891;49.220;6.920;2023-07-31T09:31:40;98722.19;;;22.45;52.62
62833;BME280;48891;49.220;6.920;2023-07-31T09:34:06;98721.69;;;22.41;52.86
62833;BME280;48891;49.220;6.920;2023-07-31T09:36:31;98692.09;;;22.25;52.85
62833;BME280;48891;49.220;6.920;2023-07-31T09:39:02;98722.88;;;22.47;52.76
62833;BME280;48891;49.220;6.920;2023-07-31T09:41:27;98714.81;;;22.47;52.44
62833;BME280;48891;49.220;6.920;2023-07-31T09:43:53;98724.72;;;22.46;52.65
62833;BME280;48891;49.220;6.920;2023-07-31T09:46:20;98708.59;;;22.46;52.67
62833;BME280;48891;49.220;6.920;2023-07-31T09:48:45;98702.41;;;22.46;52.57
62833;BME280;48891;49.220;6.920;2023-07-31T09:51:10;98713.13;;;22.46;52.55
62833;BME280;48891;49.220;6.920;2023-07-31T09:53:35;98707.78;;;22.46;52.62
62833;BME280;48891;49.220;6.920;2023-07-31T09:56:01;98718.50;;;22.46;52.67
62833;BME280;48891;49.220;6.920;2023-07-31T09:58:28;98715.84;;;22.46;52.67
62833;BME280;48891;49.220;6.920;2023-07-31T10:00:54;98726.41;;;22.47;52.73
62833;BME280;48891;49.220;6.920;2023-07-31T10:03:20;98718.69;;;22.44;52.83
62833;BME280;48891;49.220;6.920;2023-07-31T10:05:49;98706.09;;;22.36;52.67
62833;BME280;48891;49.220;6.920;2023-07-31T10:08:15;98724.56;;;22.48;52.79
62833;BME280;48891;49.220;6.920;2023-07-31T10:10:42;98712.47;;;22.44;52.55
62833;BME280;48891;49.220;6.920;2023-07-31T10:13:08;98717.69;;;22.45;52.56
62833;BME280;48891;49.220;6.920;2023-07-31T10:15:34;98703.41;;;22.36;52.44
62833;BME280;48891;49.220;6.920;2023-07-31T10:18:00;98719.34;;;22.46;52.44
62833;BME280;48891;49.220;6.920;2023-07-31T10:20:27;98696.50;;;22.34;52.45
62833;BME280;48891;49.220;6.920;2023-07-31T10:22:54;98721.88;;;22.48;52.49
62833;BME280;48891;49.220;6.920;2023-07-31T10:25:21;98711.13;;;22.48;52.42
62833;BME280;48891;49.220;6.920;2023-07-31T10:27:47;98701.38;;;22.47;52.76
62833;BME280;48891;49.220;6.920;2023-07-31T10:30:16;98702.41;;;22.46;52.38
62833;BME280;48891;49.220;6.920;2023-07-31T10:32:43;98669.78;;;22.24;52.52
62833;BME280;48891;49.220;6.920;2023-07-31T10:35:09;98703.22;;;22.46;52.69
62833;BME280;48891;49.220;6.920;2023-07-31T10:37:42;98697.03;;;22.46;52.59
62833;BME280;48891;49.220;6.920;2023-07-31T10:40:13;98692.31;;;22.48;52.73
62833;BME280;48891;49.220;6.920;2023-07-31T10:45:13;98700.38;;;22.48;52.49
62833;BME280;48891;49.220;6.920;2023-07-31T10:47:43;98679.91;;;22.39;52.78
62833;BME280;48891;49.220;6.920;2023-07-31T10:50:16;98692.31;;;22.48;52.66
62833;BME280;48891;49.220;6.920;2023-07-31T10:52:47;98690.63;;;22.47;52.66
62833;BME280;48891;49.220;6.920;2023-07-31T10:55:29;98689.78;;;22.46;52.69
62833;BME280;48891;49.220;6.920;2023-07-31T10:58:23;98687.13;;;22.46;52.87
62833;BME280;48891;49.220;6.920;2023-07-31T11:00:49;98675.69;;;22.44;52.78
62833;BME280;48891;49.220;6.920;2023-07-31T11:03:16;98673.00;;;22.44;52.70
62833;BME280;48891;49.220;6.920;2023-07-31T11:05:52;98669.34;;;22.45;52.80
62833;BME280;48891;49.220;6.920;2023-07-31T11:08:29;98660.56;;;22.43;52.78
62833;BME280;48891;49.220;6.920;2023-07-31T11:13:26;98656.41;;;22.41;52.67
62833;BME280;48891;49.220;6.920;2023-07-31T11:15:51;98666.97;;;22.42;52.70
62833;BME280;48891;49.220;6.920;2023-07-31T11:18:16;98663.47;;;22.42;52.70
62833;BME280;48891;49.220;6.920;2023-07-31T11:20:41;98667.97;;;22.41;52.83
62833;BME280;48891;49.220;6.920;2023-07-31T11:23:08;98662.44;;;22.43;52.78
62833;BME280;48891;49.220;6.920;2023-07-31T11:25:34;98665.28;;;22.41;52.91
62833;BME280;48891;49.220;6.920;2023-07-31T11:28:08;98666.13;;;22.42;52.66
62833;BME280;48891;49.220;6.920;2023-07-31T11:30:34;98667.13;;;22.41;52.80
62833;BME280;48891;49.220;6.920;2023-07-31T11:33:04;98666.13;;;22.42;53.05
62833;BME280;48891;49.220;6.920;2023-07-31T11:35:34;98661.75;;;22.41;52.98
62833;BME280;48891;49.220;6.920;2023-07-31T11:38:00;98664.28;;;22.42;53.17
62833;BME280;48891;49.220;6.920;2023-07-31T11:40:25;98664.13;;;22.44;52.85
62833;BME280;48891;49.220;6.920;2023-07-31T11:42:50;98661.59;;;22.42;52.76
62833;BME280;48891;49.220;6.920;2023-07-31T11:45:16;98652.72;;;22.42;52.65
62833;BME280;48891;49.220;6.920;2023-07-31T11:47:41;98656.06;;;22.44;52.81
62833;BME280;48891;49.220;6.920;2023-07-31T11:50:10;98654.22;;;22.44;52.67
62833;BME280;48891;49.220;6.920;2023-07-31T11:52:39;98649.00;;;22.43;52.74
62833;BME280;48891;49.220;6.920;2023-07-31T11:55:05;98638.25;;;22.34;52.95
62833;BME280;48891;49.220;6.920;2023-07-31T11:57:33;98654.22;;;22.44;52.82
62833;BME280;48891;49.220;6.920;2023-07-31T11:59:59;98650.69;;;22.44;52.96
62833;BME280;48891;49.220;6.920;2023-07-31T12:02:24;98650.03;;;22.42;52.66
62833;BME280;48891;49.220;6.920;2023-07-31T12:04:50;98653.53;;;22.42;52.81
62833;BME280;48891;49.220;6.920;2023-07-31T12:07:15;98647.34;;;22.42;52.70
62833;BME280;48891;49.220;6.920;2023-07-31T12:09:56;98642.28;;;22.39;53.03
62833;BME280;48891;49.220;6.920;2023-07-31T12:12:23;98638.59;;;22.40;53.00
62833;BME280;48891;49.220;6.920;2023-07-31T12:14:48;98638.25;;;22.43;52.97
62833;BME280;48891;49.220;6.920;2023-07-31T12:17:14;98633.38;;;22.38;52.85
62833;BME280;48891;49.220;6.920;2023-07-31T12:19:39;98642.97;;;22.41;53.19
62833;BME280;48891;49.220;6.920;2023-07-31T12:22:14;98633.06;;;22.41;53.15
62833;BME280;48891;49.220;6.920;2023-07-31T12:24:41;98630.53;;;22.40;52.87
62833;BME280;48891;49.220;6.920;2023-07-31T12:27:14;98629.19;;;22.35;52.94
62833;BME280;48891;49.220;6.920;2023-07-31T12:29:41;98631.22;;;22.42;52.83
62833;BME280;48891;49.220;6.920;2023-07-31T12:32:23;98627.84;;;22.40;52.70
62833;BME280;48891;49.220;6.920;2023-07-31T12:34:48;98626.03;;;22.40;52.87
62833;BME280;48891;49.220;6.920;2023-07-31T12:37:14;98625.84;;;22.42;53.15
62833;BME280;48891;49.220;6.920;2023-07-31T12:39:39;98634.91;;;22.41;52.69
62833;BME280;48891;49.220;6.920;2023-07-31T12:42:05;98631.56;;;22.39;52.86
62833;BME280;48891;49.220;6.920;2023-07-31T12:44:30;98634.06;;;22.40;53.00
62833;BME280;48891;49.220;6.920;2023-07-31T12:46:55;98638.59;;;22.40;52.85
62833;BME280;48891;49.220;6.920;2023-07-31T12:49:20;98628.19;;;22.36;53.24
62833;BME280;48891;49.220;6.920;2023-07-31T12:51:46;98627.00;;;22.39;52.73
62833;BME280;48891;49.220;6.920;2023-07-31T12:54:12;98627.00;;;22.39;52.88
62833;BME280;48891;49.220;6.920;2023-07-31T12:56:37;98618.97;;;22.39;52.72
62833;BME280;48891;49.220;6.920;2023-07-31T12:59:02;98609.19;;;22.38;52.94
62833;BME280;48891;49.220;6.920;2023-07-31T13:01:28;98605.34;;;22.41;53.00
62833;BME280;48891;49.220;6.920;2023-07-31T13:03:53;98594.47;;;22.42;53.03
62833;BME280;48891;49.220;6.920;2023-07-31T13:06:18;98591.94;;;22.41;53.11
62833;BME280;48891;49.220;6.920;2023-07-31T13:08:43;98570.44;;;22.41;52.92
62833;BME280;48891;49.220;6.920;2023-07-31T13:11:08;98566.75;;;22.42;53.07
62833;BME280;48891;49.220;6.920;2023-07-31T13:13:34;98565.75;;;22.43;52.90